Time,TemperatureF,DewpointF,PressureIn,WindDirection,WindDirectionDegrees,WindSpeedMPH,WindSpeedGustMPH,Humidity,HourlyPrecipIn,Conditions,Clouds,dailyrainin,SoftwareType,DateUTC
2013-12-07 00:02:00,22.8,20.9,29.83,NNE,22,0.0,1.0,92,0.00,,---,0.00,VWS V14.00,2013-12-07 06:02:00,
2013-12-07 00:07:00,22.8,20.9,29.83,NNE,22,0.0,1.0,92,0.00,,---,0.00,VWS V14.00,2013-12-07 06:07:00,
2013-12-07 00:12:00,22.8,20.9,29.83,NNE,22,0.0,1.0,92,0.00,,---,0.00,VWS V14.00,2013-12-07 06:12:00,
2013-12-07 00:17:00,22.8,20.9,29.83,NNE,22,0.0,1.0,92,0.00,,---,0.00,VWS V14.00,2013-12-07 06:17:00,
2013-12-07 00:22:00,22.6,20.7,29.83,NNE,22,0.0,1.0,92,0.00,,---,0.00,VWS V14.00,2013-12-07 06:22:00,
2013-12-07 00:27:00,22.6,20.7,29.83,NNE,22,0.0,1.0,92,0.00,,---,0.00,VWS V14.00,2013-12-07 06:27:00,
2013-12-07 00:32:00,22.6,20.7,29.83,NNE,22,0.0,1.0,92,0.00,,---,0.00,VWS V14.00,2013-12-07 06:32:00,
2013-12-07 00:37:00,22.6,20.7,29.83,NNE,22,0.0,1.0,92,0.00,,---,0.00,VWS V14.00,2013-12-07 06:37:00,
2013-12-07 00:42:00,22.5,20.5,29.83,NNE,22,0.0,1.0,92,0.00,,---,0.00,VWS V14.00,2013-12-07 06:42:00,
2013-12-07 00:47:00,22.3,20.3,29.83,NNE,22,0.0,1.0,92,0.00,,---,0.00,VWS V14.00,2013-12-07 06:47:00,
2013-12-07 00:52:00,22.3,20.1,29.83,NNE,22,0.0,1.0,91,0.00,,---,0.00,VWS V14.00,2013-12-07 06:52:00,
2013-12-07 00:57:00,22.1,19.9,29.83,NNE,22,0.0,1.0,91,0.00,,---,0.00,VWS V14.00,2013-12-07 06:57:00,
2013-12-07 01:02:00,22.1,19.9,29.83,NNE,22,0.0,1.0,91,0.00,,---,0.00,VWS V14.00,2013-12-07 07:02:00,
2013-12-07 01:07:00,22.1,19.9,29.83,NNE,22,0.0,1.0,91,0.00,,---,0.00,VWS V14.00,2013-12-07 07:07:00,
2013-12-07 01:12:00,21.9,19.7,29.83,NNE,22,0.0,1.0,91,0.00,,---,0.00,VWS V14.00,2013-12-07 07:12:00,
2013-12-07 01:17:00,21.7,19.5,29.83,NNE,22,0.0,1.0,91,0.00,,---,0.00,VWS V14.00,2013-12-07 07:17:00,
2013-12-07 01:21:00,21.6,19.3,29.83,NNE,22,0.0,1.0,91,0.00,,---,0.00,VWS V14.00,2013-12-07 07:21:00,
2013-12-07 01:26:00,21.6,19.3,29.83,NNE,22,0.0,1.0,91,0.00,,---,0.00,VWS V14.00,2013-12-07 07:26:00,
2013-12-07 01:31:00,21.6,19.3,29.83,NNE,22,0.0,1.0,91,0.00,,---,0.00,VWS V14.00,2013-12-07 07:31:00,
2013-12-07 01:36:00,21.4,19.2,29.83,NNE,22,0.0,1.0,91,0.00,,---,0.00,VWS V14.00,2013-12-07 07:36:00,
2013-12-07 01:41:00,21.2,19.0,29.83,NNE,22,0.0,1.0,91,0.00,,---,0.00,VWS V14.00,2013-12-07 07:41:00,
2013-12-07 01:46:00,21.4,19.2,29.83,NNE,22,0.0,1.0,91,0.00,,---,0.00,VWS V14.00,2013-12-07 07:46:00,
2013-12-07 01:51:00,21.4,19.2,29.85,NNE,22,0.0,1.0,91,0.00,,---,0.00,VWS V14.00,2013-12-07 07:51:00,
2013-12-07 01:56:00,21.2,19.0,29.85,NNE,22,0.0,1.0,91,0.00,,---,0.00,VWS V14.00,2013-12-07 07:56:00,
2013-12-07 02:01:00,21.2,19.0,29.85,NNE,22,0.0,1.0,91,0.00,,---,0.00,VWS V14.00,2013-12-07 08:01:00,
2013-12-07 02:06:00,21.2,19.0,29.85,NNE,22,0.0,1.0,91,0.00,,---,0.00,VWS V14.00,2013-12-07 08:06:00,
2013-12-07 02:11:00,21.0,18.8,29.85,NNE,22,0.0,1.0,91,0.00,,---,0.00,VWS V14.00,2013-12-07 08:11:00,
2013-12-07 02:16:00,21.0,18.8,29.85,NNE,22,0.0,1.0,91,0.00,,---,0.00,VWS V14.00,2013-12-07 08:16:00,
2013-12-07 02:21:00,21.0,18.8,29.85,NNE,22,0.0,1.0,91,0.00,,---,0.00,VWS V14.00,2013-12-07 08:21:00,
2013-12-07 02:26:00,20.8,18.6,29.85,NNE,22,0.0,1.0,91,0.00,,---,0.00,VWS V14.00,2013-12-07 08:26:00,
2013-12-07 02:31:00,20.8,18.6,29.85,NNE,22,0.0,1.0,91,0.00,,---,0.00,VWS V14.00,2013-12-07 08:31:00,
2013-12-07 02:36:00,20.8,18.6,29.85,NNE,22,0.0,1.0,91,0.00,,---,0.00,VWS V14.00,2013-12-07 08:36:00,
2013-12-07 02:41:00,20.7,18.5,29.85,NNE,22,0.0,1.0,91,0.00,,---,0.00,VWS V14.00,2013-12-07 08:41:00,
2013-12-07 02:46:00,20.7,18.5,29.85,NNE,22,0.0,1.0,91,0.00,,---,0.00,VWS V14.00,2013-12-07 08:46:00,
2013-12-07 02:51:00,20.5,18.3,29.85,NNE,22,0.0,1.0,91,0.00,,---,0.00,VWS V14.00,2013-12-07 08:51:00,
2013-12-07 02:56:00,20.5,18.0,29.85,NNE,22,0.0,1.0,90,0.00,,---,0.00,VWS V14.00,2013-12-07 08:56:00,
2013-12-07 03:01:00,20.5,18.0,29.85,NNE,22,0.0,1.0,90,0.00,,---,0.00,VWS V14.00,2013-12-07 09:01:00,
2013-12-07 03:06:00,20.5,18.0,29.85,NNE,22,0.0,1.0,90,0.00,,---,0.00,VWS V14.00,2013-12-07 09:06:00,
2013-12-07 03:11:00,20.5,18.0,29.85,NNE,22,0.0,1.0,90,0.00,,---,0.00,VWS V14.00,2013-12-07 09:11:00,
2013-12-07 03:16:00,20.5,18.0,29.85,NNE,22,0.0,1.0,90,0.00,,---,0.00,VWS V14.00,2013-12-07 09:16:00,
2013-12-07 03:21:00,20.5,18.0,29.85,NNE,22,0.0,1.0,90,0.00,,---,0.00,VWS V14.00,2013-12-07 09:21:00,
2013-12-07 03:26:00,20.5,18.0,29.85,NNE,22,0.0,1.0,90,0.00,,---,0.00,VWS V14.00,2013-12-07 09:26:00,
2013-12-07 03:31:00,20.3,17.6,29.85,NNE,22,0.0,1.0,89,0.00,,---,0.00,VWS V14.00,2013-12-07 09:31:00,
2013-12-07 03:36:00,20.3,17.6,29.85,NNE,22,0.0,1.0,89,0.00,,---,0.00,VWS V14.00,2013-12-07 09:36:00,
2013-12-07 03:41:00,20.3,17.6,29.85,NNE,22,0.0,1.0,89,0.00,,---,0.00,VWS V14.00,2013-12-07 09:41:00,
2013-12-07 03:46:00,20.3,17.6,29.85,NNE,22,0.0,1.0,89,0.00,,---,0.00,VWS V14.00,2013-12-07 09:46:00,
2013-12-07 03:51:00,20.3,17.6,29.85,NNE,22,0.0,1.0,89,0.00,,---,0.00,VWS V14.00,2013-12-07 09:51:00,
2013-12-07 03:56:00,20.3,17.3,29.85,NNE,22,0.0,1.0,88,0.00,,---,0.00,VWS V14.00,2013-12-07 09:56:00,
2013-12-07 04:01:00,20.3,17.3,29.85,NNE,22,0.0,1.0,88,0.00,,---,0.00,VWS V14.00,2013-12-07 10:01:00,
2013-12-07 04:06:00,20.1,17.1,29.85,NNE,22,0.0,1.0,88,0.00,,---,0.00,VWS V14.00,2013-12-07 10:06:00,
2013-12-07 04:11:00,20.1,17.1,29.88,NNE,22,0.0,1.0,88,0.00,,---,0.00,VWS V14.00,2013-12-07 10:11:00,
2013-12-07 04:16:00,20.1,16.9,29.88,NNE,22,0.0,1.0,87,0.00,,---,0.00,VWS V14.00,2013-12-07 10:16:00,
2013-12-07 04:21:00,20.1,16.9,29.88,NNE,22,0.0,1.0,87,0.00,,---,0.00,VWS V14.00,2013-12-07 10:21:00,
2013-12-07 04:26:00,20.1,16.9,29.88,NNE,22,0.0,1.0,87,0.00,,---,0.00,VWS V14.00,2013-12-07 10:26:00,
2013-12-07 04:31:00,19.9,16.7,29.88,NNE,22,0.0,1.0,87,0.00,,---,0.00,VWS V14.00,2013-12-07 10:31:00,
2013-12-07 04:36:00,19.9,16.7,29.88,NNE,22,0.0,1.0,87,0.00,,---,0.00,VWS V14.00,2013-12-07 10:36:00,
2013-12-07 04:41:00,19.9,16.4,29.88,NNE,22,0.0,1.0,86,0.00,,---,0.00,VWS V14.00,2013-12-07 10:41:00,
2013-12-07 04:46:00,19.8,16.3,29.88,NNE,22,0.0,1.0,86,0.00,,---,0.00,VWS V14.00,2013-12-07 10:46:00,
2013-12-07 04:51:00,19.8,16.3,29.88,NNE,22,0.0,1.0,86,0.00,,---,0.00,VWS V14.00,2013-12-07 10:51:00,
2013-12-07 04:56:00,19.8,16.3,29.88,NNE,22,0.0,1.0,86,0.00,,---,0.00,VWS V14.00,2013-12-07 10:56:00,
2013-12-07 05:01:00,19.6,16.1,29.88,NNE,22,0.0,1.0,86,0.00,,---,0.00,VWS V14.00,2013-12-07 11:01:00,
2013-12-07 05:06:00,19.4,15.6,29.88,NNE,22,0.0,1.0,85,0.00,,---,0.00,VWS V14.00,2013-12-07 11:06:00,
2013-12-07 05:11:00,19.4,15.6,29.88,NNE,22,0.0,1.0,85,0.00,,---,0.00,VWS V14.00,2013-12-07 11:11:00,
2013-12-07 05:16:00,19.4,15.4,29.88,NNE,22,0.0,1.0,84,0.00,,---,0.00,VWS V14.00,2013-12-07 11:16:00,
2013-12-07 05:21:00,19.4,15.4,29.88,NNE,22,0.0,1.0,84,0.00,,---,0.00,VWS V14.00,2013-12-07 11:21:00,
2013-12-07 05:26:00,19.2,15.2,29.88,NNE,22,0.0,1.0,84,0.00,,---,0.00,VWS V14.00,2013-12-07 11:26:00,
2013-12-07 05:31:00,19.0,15.0,29.88,NNE,22,0.0,1.0,84,0.00,,---,0.00,VWS V14.00,2013-12-07 11:31:00,
2013-12-07 05:36:00,19.0,15.0,29.88,NNE,22,0.0,1.0,84,0.00,,---,0.00,VWS V14.00,2013-12-07 11:36:00,
2013-12-07 05:41:00,18.9,14.8,29.88,NNE,22,0.0,1.0,84,0.00,,---,0.00,VWS V14.00,2013-12-07 11:41:00,
2013-12-07 05:46:00,18.9,14.8,29.88,NNE,22,0.0,1.0,84,0.00,,---,0.00,VWS V14.00,2013-12-07 11:46:00,
2013-12-07 05:51:00,18.9,14.8,29.91,NNE,22,0.0,1.0,84,0.00,,---,0.00,VWS V14.00,2013-12-07 11:51:00,
2013-12-07 05:56:00,18.7,14.7,29.91,NNE,22,0.0,1.0,84,0.00,,---,0.00,VWS V14.00,2013-12-07 11:56:00,
2013-12-07 06:01:00,18.7,14.7,29.91,NNE,22,0.0,1.0,84,0.00,,---,0.00,VWS V14.00,2013-12-07 12:01:00,
2013-12-07 06:06:00,18.7,14.7,29.91,NNE,22,0.0,1.0,84,0.00,,---,0.00,VWS V14.00,2013-12-07 12:06:00,
2013-12-07 06:11:00,18.5,14.2,29.91,NNE,22,0.0,1.0,83,0.00,,---,0.00,VWS V14.00,2013-12-07 12:11:00,
2013-12-07 06:16:00,18.5,14.2,29.91,NNE,22,0.0,1.0,83,0.00,,---,0.00,VWS V14.00,2013-12-07 12:16:00,
2013-12-07 06:21:00,18.3,14.0,29.91,NNE,22,0.0,1.0,83,0.00,,---,0.00,VWS V14.00,2013-12-07 12:21:00,
2013-12-07 06:26:00,18.1,13.9,29.91,NNE,22,0.0,1.0,83,0.00,,---,0.00,VWS V14.00,2013-12-07 12:26:00,
2013-12-07 06:31:00,18.1,13.9,29.91,NNE,22,0.0,1.0,83,0.00,,---,0.00,VWS V14.00,2013-12-07 12:31:00,
2013-12-07 06:36:00,18.1,13.9,29.91,NNE,22,0.0,1.0,83,0.00,,---,0.00,VWS V14.00,2013-12-07 12:36:00,
2013-12-07 06:41:00,18.0,13.7,29.91,NNE,22,0.0,1.0,83,0.00,,---,0.00,VWS V14.00,2013-12-07 12:41:00,
2013-12-07 06:46:00,17.8,13.5,29.91,NNE,22,0.0,1.0,83,0.00,,---,0.00,VWS V14.00,2013-12-07 12:46:00,
2013-12-07 06:51:00,17.8,13.5,29.91,NNE,22,0.0,1.0,83,0.00,,---,0.00,VWS V14.00,2013-12-07 12:51:00,
2013-12-07 06:56:00,17.6,13.3,29.91,NNE,22,0.0,1.0,83,0.00,,---,0.00,VWS V14.00,2013-12-07 12:56:00,
2013-12-07 07:01:00,17.6,13.1,29.91,NNE,22,0.0,1.0,82,0.00,,---,0.00,VWS V14.00,2013-12-07 13:01:00,
2013-12-07 07:06:00,17.6,13.1,29.91,NNE,22,0.0,1.0,82,0.00,,---,0.00,VWS V14.00,2013-12-07 13:06:00,
2013-12-07 07:11:00,17.6,13.1,29.91,NNE,22,0.0,1.0,82,0.00,,---,0.00,VWS V14.00,2013-12-07 13:11:00,
2013-12-07 07:16:00,17.6,13.1,29.91,NNE,22,0.0,1.0,82,0.00,,---,0.00,VWS V14.00,2013-12-07 13:16:00,
2013-12-07 07:21:00,17.6,13.1,29.91,NNE,22,0.0,1.0,82,0.00,,---,0.00,VWS V14.00,2013-12-07 13:21:00,
2013-12-07 07:26:00,17.6,13.1,29.91,NNE,22,0.0,1.0,82,0.00,,---,0.00,VWS V14.00,2013-12-07 13:26:00,
2013-12-07 07:31:00,17.6,13.1,29.91,NNE,22,0.0,1.0,82,0.00,,---,0.00,VWS V14.00,2013-12-07 13:31:00,
2013-12-07 07:36:00,17.4,12.9,29.91,NNE,22,0.0,1.0,82,0.00,,---,0.00,VWS V14.00,2013-12-07 13:36:00,
2013-12-07 07:41:00,17.4,12.9,29.91,NNE,22,0.0,1.0,82,0.00,,---,0.00,VWS V14.00,2013-12-07 13:41:00,
2013-12-07 07:46:00,17.4,12.9,29.91,NNE,22,0.0,1.0,82,0.00,,---,0.00,VWS V14.00,2013-12-07 13:46:00,
2013-12-07 07:51:00,17.4,12.9,29.91,NNE,22,0.0,1.0,82,0.00,,---,0.00,VWS V14.00,2013-12-07 13:51:00,
2013-12-07 07:56:00,17.4,12.9,29.91,NNE,22,0.0,1.0,82,0.00,,---,0.00,VWS V14.00,2013-12-07 13:56:00,
2013-12-07 08:01:00,17.4,12.9,29.91,NNE,22,0.0,1.0,82,0.00,,---,0.00,VWS V14.00,2013-12-07 14:01:00,
2013-12-07 08:06:00,17.4,12.9,29.91,NNE,22,0.0,1.0,82,0.00,,---,0.00,VWS V14.00,2013-12-07 14:06:00,
2013-12-07 08:11:00,17.4,12.9,29.91,NNE,22,0.0,1.0,82,0.00,,---,0.00,VWS V14.00,2013-12-07 14:11:00,
2013-12-07 08:16:00,17.6,12.8,29.91,NNE,22,0.0,1.0,81,0.00,,---,0.00,VWS V14.00,2013-12-07 14:16:00,
2013-12-07 08:21:00,17.6,12.8,29.94,NNE,22,0.0,1.0,81,0.00,,---,0.00,VWS V14.00,2013-12-07 14:21:00,
2013-12-07 08:26:00,17.6,12.8,29.94,NNE,22,0.0,1.0,81,0.00,,---,0.00,VWS V14.00,2013-12-07 14:26:00,
2013-12-07 08:31:00,17.8,12.9,29.94,NNE,22,0.0,1.0,81,0.00,,---,0.00,VWS V14.00,2013-12-07 14:31:00,
2013-12-07 08:36:00,17.8,12.7,29.94,NNE,22,0.0,1.0,80,0.00,,---,0.00,VWS V14.00,2013-12-07 14:36:00,
2013-12-07 08:41:00,18.1,13.0,29.94,NNE,22,0.0,1.0,80,0.00,,---,0.00,VWS V14.00,2013-12-07 14:41:00,
2013-12-07 08:46:00,18.1,13.0,29.94,NNE,22,0.0,1.0,80,0.00,,---,0.00,VWS V14.00,2013-12-07 14:46:00,
2013-12-07 08:51:00,18.3,12.6,29.94,NNE,22,0.0,1.0,78,0.00,,---,0.00,VWS V14.00,2013-12-07 14:51:00,
2013-12-07 08:56:00,18.3,12.6,29.94,NNE,22,0.0,1.0,78,0.00,,---,0.00,VWS V14.00,2013-12-07 14:56:00,
2013-12-07 09:01:00,18.9,12.6,29.94,NNE,22,0.0,1.0,76,0.00,,---,0.00,VWS V14.00,2013-12-07 15:01:00,
2013-12-07 09:06:00,19.0,12.7,29.94,NNE,22,0.0,1.0,76,0.00,,---,0.00,VWS V14.00,2013-12-07 15:06:00,
2013-12-07 09:11:00,19.0,12.7,29.94,NNE,22,0.0,1.0,76,0.00,,---,0.00,VWS V14.00,2013-12-07 15:11:00,
2013-12-07 09:16:00,19.2,12.6,29.94,NNE,22,0.0,1.0,75,0.00,,---,0.00,VWS V14.00,2013-12-07 15:16:00,
2013-12-07 09:21:00,19.0,12.1,29.94,NNE,22,0.0,1.0,74,0.00,,---,0.00,VWS V14.00,2013-12-07 15:21:00,
2013-12-07 09:26:00,19.0,12.1,29.94,NNE,22,0.0,1.0,74,0.00,,---,0.00,VWS V14.00,2013-12-07 15:26:00,
2013-12-07 09:31:00,19.6,13.0,29.94,NNE,22,0.0,1.0,75,0.00,,---,0.00,VWS V14.00,2013-12-07 15:31:00,
2013-12-07 09:36:00,19.8,13.1,29.94,NNE,22,0.0,1.0,75,0.00,,---,0.00,VWS V14.00,2013-12-07 15:36:00,
2013-12-07 09:41:00,19.8,13.1,29.94,NNE,22,0.0,1.0,75,0.00,,---,0.00,VWS V14.00,2013-12-07 15:41:00,
2013-12-07 09:46:00,19.9,13.6,29.94,NNE,22,0.0,1.0,76,0.00,,---,0.00,VWS V14.00,2013-12-07 15:46:00,
2013-12-07 09:51:00,19.9,13.6,29.94,NNE,22,0.0,1.0,76,0.00,,---,0.00,VWS V14.00,2013-12-07 15:51:00,
2013-12-07 09:56:00,20.1,14.1,29.94,NNE,22,0.0,1.0,77,0.00,,---,0.00,VWS V14.00,2013-12-07 15:56:00,
2013-12-07 10:01:00,20.3,14.3,29.94,NNE,22,0.0,1.0,77,0.00,,---,0.00,VWS V14.00,2013-12-07 16:01:00,
2013-12-07 10:06:00,20.5,14.7,29.97,NNE,22,0.0,1.0,78,0.00,,---,0.00,VWS V14.00,2013-12-07 16:06:00,
2013-12-07 10:11:00,20.5,14.7,29.97,NNE,22,0.0,1.0,78,0.00,,---,0.00,VWS V14.00,2013-12-07 16:11:00,
2013-12-07 10:16:00,20.5,14.7,29.97,NNE,22,0.0,1.0,78,0.00,,---,0.00,VWS V14.00,2013-12-07 16:16:00,
2013-12-07 10:21:00,20.5,14.7,29.97,NNE,22,0.0,1.0,78,0.00,,---,0.00,VWS V14.00,2013-12-07 16:21:00,
2013-12-07 10:26:00,20.8,15.4,29.97,NNE,22,0.0,1.0,79,0.00,,---,0.00,VWS V14.00,2013-12-07 16:26:00,
2013-12-07 10:31:00,21.2,15.7,29.97,NNE,22,0.0,1.0,79,0.00,,---,0.00,VWS V14.00,2013-12-07 16:31:00,
2013-12-07 10:36:00,21.2,15.7,29.97,NNE,22,0.0,1.0,79,0.00,,---,0.00,VWS V14.00,2013-12-07 16:36:00,
2013-12-07 10:41:00,21.2,15.7,29.97,NNE,22,0.0,1.0,79,0.00,,---,0.00,VWS V14.00,2013-12-07 16:41:00,
2013-12-07 10:46:00,21.2,15.7,29.97,NNE,22,0.0,1.0,79,0.00,,---,0.00,VWS V14.00,2013-12-07 16:46:00,
2013-12-07 10:51:00,21.9,15.8,29.94,NNE,22,0.0,1.0,77,0.00,,---,0.00,VWS V14.00,2013-12-07 16:51:00,
2013-12-07 10:56:00,22.1,16.0,29.94,NNE,22,0.0,1.0,77,0.00,,---,0.00,VWS V14.00,2013-12-07 16:56:00,
2013-12-07 11:01:00,22.5,16.4,29.94,NNE,22,0.0,1.0,77,0.00,,---,0.00,VWS V14.00,2013-12-07 17:01:00,
2013-12-07 11:06:00,22.5,16.4,29.94,NNE,22,0.0,1.0,77,0.00,,---,0.00,VWS V14.00,2013-12-07 17:06:00,
2013-12-07 11:11:00,22.8,16.7,29.94,NNE,22,0.0,1.0,77,0.00,,---,0.00,VWS V14.00,2013-12-07 17:11:00,
2013-12-07 11:16:00,23.0,16.6,29.94,NNE,22,0.0,1.0,76,0.00,,---,0.00,VWS V14.00,2013-12-07 17:16:00,
2013-12-07 11:21:00,23.2,16.5,29.94,NNE,22,0.0,1.0,75,0.00,,---,0.00,VWS V14.00,2013-12-07 17:21:00,
2013-12-07 11:26:00,23.2,16.5,29.94,NNE,22,0.0,1.0,75,0.00,,---,0.00,VWS V14.00,2013-12-07 17:26:00,
2013-12-07 11:31:00,23.2,16.5,29.94,NNE,22,0.0,1.0,75,0.00,,---,0.00,VWS V14.00,2013-12-07 17:31:00,
2013-12-07 11:36:00,23.5,16.8,29.91,NNE,22,0.0,1.0,75,0.00,,---,0.00,VWS V14.00,2013-12-07 17:36:00,
2013-12-07 11:41:00,23.5,16.8,29.91,NNE,22,0.0,1.0,75,0.00,,---,0.00,VWS V14.00,2013-12-07 17:41:00,
2013-12-07 11:46:00,24.1,16.4,29.91,NNE,22,0.0,1.0,72,0.00,,---,0.00,VWS V14.00,2013-12-07 17:46:00,
2013-12-07 11:51:00,24.1,16.4,29.91,NNE,22,0.0,1.0,72,0.00,,---,0.00,VWS V14.00,2013-12-07 17:51:00,
2013-12-07 11:56:00,24.4,16.1,29.91,NNE,22,0.0,1.0,70,0.00,,---,0.00,VWS V14.00,2013-12-07 17:56:00,
2013-12-07 12:01:00,24.4,16.1,29.91,NNE,22,0.0,1.0,70,0.00,,---,0.00,VWS V14.00,2013-12-07 18:01:00,
2013-12-07 12:06:00,24.6,16.6,29.91,NNE,22,0.0,1.0,71,0.00,,---,0.00,VWS V14.00,2013-12-07 18:06:00,
2013-12-07 12:11:00,24.6,16.6,29.91,NNE,22,0.0,1.0,71,0.00,,---,0.00,VWS V14.00,2013-12-07 18:11:00,
2013-12-07 12:16:00,24.6,16.6,29.91,NNE,22,0.0,1.0,71,0.00,,---,0.00,VWS V14.00,2013-12-07 18:16:00,
2013-12-07 12:21:00,25.2,17.1,29.91,NNE,22,0.0,1.0,71,0.00,,---,0.00,VWS V14.00,2013-12-07 18:21:00,
2013-12-07 12:26:00,25.2,17.1,29.91,NNE,22,0.0,1.0,71,0.00,,---,0.00,VWS V14.00,2013-12-07 18:26:00,
2013-12-07 12:31:00,25.2,17.1,29.91,NNE,22,0.0,1.0,71,0.00,,---,0.00,VWS V14.00,2013-12-07 18:31:00,
2013-12-07 12:36:00,25.3,15.9,29.88,NNE,22,0.0,1.0,67,0.00,,---,0.00,VWS V14.00,2013-12-07 18:36:00,
2013-12-07 12:41:00,25.2,15.8,29.88,NNE,22,0.0,1.0,67,0.00,,---,0.00,VWS V14.00,2013-12-07 18:41:00,
2013-12-07 12:46:00,25.2,15.8,29.88,NNE,22,0.0,1.0,67,0.00,,---,0.00,VWS V14.00,2013-12-07 18:46:00,
2013-12-07 12:51:00,25.2,15.8,29.88,NNE,22,0.0,1.0,67,0.00,,---,0.00,VWS V14.00,2013-12-07 18:51:00,
2013-12-07 12:56:00,25.2,15.8,29.88,NNE,22,0.0,1.0,67,0.00,,---,0.00,VWS V14.00,2013-12-07 18:56:00,
2013-12-07 13:01:00,25.2,15.8,29.88,NNE,22,0.0,1.0,67,0.00,,---,0.00,VWS V14.00,2013-12-07 19:01:00,
2013-12-07 13:06:00,25.0,17.2,29.88,NNE,22,0.0,1.0,72,0.00,,---,0.00,VWS V14.00,2013-12-07 19:06:00,
2013-12-07 13:11:00,25.0,17.2,29.88,NNE,22,0.0,1.0,72,0.00,,---,0.00,VWS V14.00,2013-12-07 19:11:00,
2013-12-07 13:16:00,25.0,17.2,29.88,NNE,22,0.0,1.0,72,0.00,,---,0.00,VWS V14.00,2013-12-07 19:16:00,
2013-12-07 13:21:00,25.0,17.2,29.88,NNE,22,0.0,1.0,72,0.00,,---,0.00,VWS V14.00,2013-12-07 19:21:00,
2013-12-07 13:26:00,25.2,17.7,29.88,NNE,22,0.0,1.0,73,0.00,,---,0.00,VWS V14.00,2013-12-07 19:26:00,
2013-12-07 13:31:00,25.2,17.4,29.88,NNE,22,0.0,1.0,72,0.00,,---,0.00,VWS V14.00,2013-12-07 19:31:00,
2013-12-07 13:36:00,25.2,17.4,29.88,NNE,22,0.0,1.0,72,0.00,,---,0.00,VWS V14.00,2013-12-07 19:36:00,
2013-12-07 13:41:00,25.2,17.4,29.88,NNE,22,0.0,1.0,72,0.00,,---,0.00,VWS V14.00,2013-12-07 19:41:00,
2013-12-07 13:46:00,25.2,17.4,29.88,NNE,22,0.0,1.0,72,0.00,,---,0.00,VWS V14.00,2013-12-07 19:46:00,
2013-12-07 13:51:00,25.3,16.9,29.88,NNE,22,0.0,1.0,70,0.00,,---,0.00,VWS V14.00,2013-12-07 19:51:00,
2013-12-07 13:56:00,25.3,16.9,29.88,NNE,22,0.0,1.0,70,0.00,,---,0.00,VWS V14.00,2013-12-07 19:56:00,
2013-12-07 14:01:00,25.2,16.8,29.88,NNE,22,0.0,1.0,70,0.00,,---,0.00,VWS V14.00,2013-12-07 20:01:00,
2013-12-07 14:06:00,25.0,16.9,29.88,NNE,22,0.0,1.0,71,0.00,,---,0.00,VWS V14.00,2013-12-07 20:06:00,
2013-12-07 14:11:00,25.2,17.1,29.88,NNE,22,0.0,1.0,71,0.00,,---,0.00,VWS V14.00,2013-12-07 20:11:00,
2013-12-07 14:16:00,25.2,17.1,29.88,NNE,22,0.0,1.0,71,0.00,,---,0.00,VWS V14.00,2013-12-07 20:16:00,
2013-12-07 14:21:00,25.3,16.9,29.85,NNE,22,0.0,1.0,70,0.00,,---,0.00,VWS V14.00,2013-12-07 20:21:00,
2013-12-07 14:26:00,25.3,16.9,29.85,NNE,22,0.0,1.0,70,0.00,,---,0.00,VWS V14.00,2013-12-07 20:26:00,
2013-12-07 14:31:00,25.3,16.3,29.85,NNE,22,0.0,1.0,68,0.00,,---,0.00,VWS V14.00,2013-12-07 20:31:00,
2013-12-07 14:36:00,25.3,16.3,29.85,NNE,22,0.0,1.0,68,0.00,,---,0.00,VWS V14.00,2013-12-07 20:36:00,
2013-12-07 14:41:00,25.3,16.3,29.85,NNE,22,0.0,1.0,68,0.00,,---,0.00,VWS V14.00,2013-12-07 20:41:00,
2013-12-07 14:46:00,25.3,16.3,29.85,NNE,22,0.0,1.0,68,0.00,,---,0.00,VWS V14.00,2013-12-07 20:46:00,
2013-12-07 14:51:00,25.7,17.3,29.85,NNE,22,0.0,1.0,70,0.00,,---,0.00,VWS V14.00,2013-12-07 20:51:00,
2013-12-07 14:56:00,25.7,17.3,29.85,NNE,22,0.0,1.0,70,0.00,,---,0.00,VWS V14.00,2013-12-07 20:56:00,
2013-12-07 15:01:00,25.7,17.3,29.85,NNE,22,0.0,1.0,70,0.00,,---,0.00,VWS V14.00,2013-12-07 21:01:00,
2013-12-07 15:06:00,25.5,16.8,29.85,NNE,22,0.0,1.0,69,0.00,,---,0.00,VWS V14.00,2013-12-07 21:06:00,
2013-12-07 15:11:00,25.5,16.8,29.85,NNE,22,0.0,1.0,69,0.00,,---,0.00,VWS V14.00,2013-12-07 21:11:00,
2013-12-07 15:16:00,25.3,16.9,29.85,NNE,22,0.0,1.0,70,0.00,,---,0.00,VWS V14.00,2013-12-07 21:16:00,
2013-12-07 15:21:00,25.3,16.9,29.85,NNE,22,0.0,1.0,70,0.00,,---,0.00,VWS V14.00,2013-12-07 21:21:00,
2013-12-07 15:26:00,25.3,16.9,29.85,NNE,22,0.0,1.0,70,0.00,,---,0.00,VWS V14.00,2013-12-07 21:26:00,
2013-12-07 15:31:00,25.3,16.9,29.85,NNE,22,0.0,1.0,70,0.00,,---,0.00,VWS V14.00,2013-12-07 21:31:00,
2013-12-07 15:36:00,25.3,16.9,29.85,NNE,22,0.0,1.0,70,0.00,,---,0.00,VWS V14.00,2013-12-07 21:36:00,
2013-12-07 15:41:00,25.3,16.9,29.85,NNE,22,0.0,1.0,70,0.00,,---,0.00,VWS V14.00,2013-12-07 21:41:00,
2013-12-07 15:46:00,25.3,16.9,29.85,NNE,22,0.0,1.0,70,0.00,,---,0.00,VWS V14.00,2013-12-07 21:46:00,
2013-12-07 15:51:00,25.0,17.6,29.85,NNE,22,0.0,1.0,73,0.00,,---,0.00,VWS V14.00,2013-12-07 21:51:00,
2013-12-07 15:56:00,25.0,17.6,29.88,NNE,22,0.0,1.0,73,0.00,,---,0.00,VWS V14.00,2013-12-07 21:56:00,
2013-12-07 16:01:00,25.0,17.6,29.88,NNE,22,0.0,1.0,73,0.00,,---,0.00,VWS V14.00,2013-12-07 22:01:00,
2013-12-07 16:06:00,25.0,17.6,29.88,NNE,22,0.0,1.0,73,0.00,,---,0.00,VWS V14.00,2013-12-07 22:06:00,
2013-12-07 16:11:00,25.0,17.6,29.88,NNE,22,0.0,1.0,73,0.00,,---,0.00,VWS V14.00,2013-12-07 22:11:00,
2013-12-07 16:16:00,25.0,17.6,29.88,NNE,22,0.0,1.0,73,0.00,,---,0.00,VWS V14.00,2013-12-07 22:16:00,
2013-12-07 16:21:00,25.0,17.6,29.85,NNE,22,0.0,1.0,73,0.00,,---,0.00,VWS V14.00,2013-12-07 22:21:00,
2013-12-07 16:26:00,25.0,17.6,29.85,NNE,22,0.0,1.0,73,0.00,,---,0.00,VWS V14.00,2013-12-07 22:26:00,
2013-12-07 16:31:00,25.0,17.6,29.85,NNE,22,0.0,1.0,73,0.00,,---,0.00,VWS V14.00,2013-12-07 22:31:00,
2013-12-07 16:36:00,25.0,17.6,29.85,NNE,22,0.0,1.0,73,0.00,,---,0.00,VWS V14.00,2013-12-07 22:36:00,
2013-12-07 16:41:00,25.0,17.6,29.85,NNE,22,0.0,1.0,73,0.00,,---,0.00,VWS V14.00,2013-12-07 22:41:00,
2013-12-07 16:46:00,25.0,17.6,29.85,NNE,22,0.0,1.0,73,0.00,,---,0.00,VWS V14.00,2013-12-07 22:46:00,
2013-12-07 16:51:00,25.0,17.6,29.85,NNE,22,0.0,1.0,73,0.00,,---,0.00,VWS V14.00,2013-12-07 22:51:00,
2013-12-07 16:56:00,23.7,13.7,29.88,NNE,22,0.0,1.0,65,0.00,,---,0.00,VWS V14.00,2013-12-07 22:56:00,
2013-12-07 17:01:00,23.5,13.9,29.88,NNE,22,0.0,1.0,66,0.00,,---,0.00,VWS V14.00,2013-12-07 23:01:00,
2013-12-07 17:06:00,23.4,13.7,29.85,NNE,22,0.0,1.0,66,0.00,,---,0.00,VWS V14.00,2013-12-07 23:06:00,
2013-12-07 17:11:00,23.0,13.7,29.85,NNE,22,0.0,1.0,67,0.00,,---,0.00,VWS V14.00,2013-12-07 23:11:00,
2013-12-07 17:16:00,22.8,13.5,29.85,NNE,22,0.0,1.0,67,0.00,,---,0.00,VWS V14.00,2013-12-07 23:16:00,
2013-12-07 17:21:00,22.8,13.9,29.85,NNE,22,0.0,1.0,68,0.00,,---,0.00,VWS V14.00,2013-12-07 23:21:00,
2013-12-07 17:26:00,22.8,13.9,29.85,NNE,22,0.0,1.0,68,0.00,,---,0.00,VWS V14.00,2013-12-07 23:26:00,
2013-12-07 17:31:00,22.6,14.0,29.85,NNE,22,0.0,1.0,69,0.00,,---,0.00,VWS V14.00,2013-12-07 23:31:00,
2013-12-07 17:36:00,22.5,13.8,29.85,NNE,22,0.0,1.0,69,0.00,,---,0.00,VWS V14.00,2013-12-07 23:36:00,
2013-12-07 17:41:00,22.5,13.8,29.85,NNE,22,0.0,1.0,69,0.00,,---,0.00,VWS V14.00,2013-12-07 23:41:00,
2013-12-07 17:46:00,22.3,13.7,29.85,NNE,22,0.0,1.0,69,0.00,,---,0.00,VWS V14.00,2013-12-07 23:46:00,
2013-12-07 17:51:00,22.1,13.5,29.85,NNE,22,0.0,1.0,69,0.00,,---,0.00,VWS V14.00,2013-12-07 23:51:00,
2013-12-07 17:56:00,22.1,13.5,29.85,NNE,22,0.0,1.0,69,0.00,,---,0.00,VWS V14.00,2013-12-07 23:56:00,
2013-12-07 18:01:00,21.9,14.0,29.85,NNE,22,0.0,1.0,71,0.00,,---,0.00,VWS V14.00,2013-12-08 00:01:00,
2013-12-07 18:06:00,21.9,14.0,29.85,NNE,22,0.0,1.0,71,0.00,,---,0.00,VWS V14.00,2013-12-08 00:06:00,
2013-12-07 18:11:00,21.6,13.6,29.85,NNE,22,0.0,1.0,71,0.00,,---,0.00,VWS V14.00,2013-12-08 00:11:00,
2013-12-07 18:16:00,21.4,13.4,29.85,NNE,22,0.0,1.0,71,0.00,,---,0.00,VWS V14.00,2013-12-08 00:16:00,
2013-12-07 18:21:00,21.4,13.4,29.85,NNE,22,0.0,1.0,71,0.00,,---,0.00,VWS V14.00,2013-12-08 00:21:00,
2013-12-07 18:26:00,21.4,13.8,29.85,NNE,22,0.0,1.0,72,0.00,,---,0.00,VWS V14.00,2013-12-08 00:26:00,
2013-12-07 18:31:00,21.4,13.8,29.85,NNE,22,0.0,1.0,72,0.00,,---,0.00,VWS V14.00,2013-12-08 00:31:00,
2013-12-07 18:36:00,21.4,14.1,29.85,NNE,22,0.0,1.0,73,0.00,,---,0.00,VWS V14.00,2013-12-08 00:36:00,
2013-12-07 18:41:00,21.4,14.4,29.85,NNE,22,0.0,1.0,74,0.00,,---,0.00,VWS V14.00,2013-12-08 00:41:00,
2013-12-07 18:46:00,21.4,14.4,29.85,NNE,22,0.0,1.0,74,0.00,,---,0.00,VWS V14.00,2013-12-08 00:46:00,
2013-12-07 18:51:00,21.4,14.4,29.85,NNE,22,0.0,1.0,74,0.00,,---,0.00,VWS V14.00,2013-12-08 00:51:00,
2013-12-07 18:56:00,21.4,14.7,29.85,NNE,22,0.0,1.0,75,0.00,,---,0.00,VWS V14.00,2013-12-08 00:56:00,
2013-12-07 19:01:00,21.4,14.7,29.83,NNE,22,0.0,1.0,75,0.00,,---,0.00,VWS V14.00,2013-12-08 01:01:00,
2013-12-07 19:06:00,21.4,14.7,29.83,NNE,22,0.0,1.0,75,0.00,,---,0.00,VWS V14.00,2013-12-08 01:06:00,
2013-12-07 19:11:00,21.4,15.0,29.85,NNE,22,0.0,1.0,76,0.00,,---,0.00,VWS V14.00,2013-12-08 01:11:00,
2013-12-07 19:16:00,21.4,15.0,29.85,NNE,22,0.0,1.0,76,0.00,,---,0.00,VWS V14.00,2013-12-08 01:16:00,
2013-12-07 19:20:00,21.4,15.0,29.85,NNE,22,0.0,1.0,76,0.00,,---,0.00,VWS V14.00,2013-12-08 01:20:00,
2013-12-07 19:26:00,21.6,15.5,29.83,NNE,22,0.0,1.0,77,0.00,,---,0.00,VWS V14.00,2013-12-08 01:26:00,
2013-12-07 19:31:00,21.6,15.5,29.83,NNE,22,0.0,1.0,77,0.00,,---,0.00,VWS V14.00,2013-12-08 01:31:00,
2013-12-07 19:36:00,21.7,15.9,29.83,NNE,22,0.0,1.0,78,0.00,,---,0.00,VWS V14.00,2013-12-08 01:36:00,
2013-12-07 19:41:00,21.7,15.9,29.83,NNE,22,0.0,1.0,78,0.00,,---,0.00,VWS V14.00,2013-12-08 01:41:00,
2013-12-07 19:46:00,21.9,16.1,29.83,NNE,22,0.0,1.0,78,0.00,,---,0.00,VWS V14.00,2013-12-08 01:46:00,
2013-12-07 19:51:00,21.9,16.4,29.83,NNE,22,0.0,1.0,79,0.00,,---,0.00,VWS V14.00,2013-12-08 01:51:00,
2013-12-07 19:55:00,21.9,16.4,29.83,NNE,22,0.0,1.0,79,0.00,,---,0.00,VWS V14.00,2013-12-08 01:55:00,
2013-12-07 20:00:00,21.9,16.4,29.83,NNE,22,0.0,1.0,79,0.00,,---,0.00,VWS V14.00,2013-12-08 02:00:00,
2013-12-07 20:05:00,21.7,16.2,29.83,NNE,22,0.0,1.0,79,0.00,,---,0.00,VWS V14.00,2013-12-08 02:05:00,
2013-12-07 20:10:00,21.9,16.4,29.83,NNE,22,0.0,1.0,79,0.00,,---,0.00,VWS V14.00,2013-12-08 02:10:00,
2013-12-07 20:15:00,21.9,16.4,29.83,NNE,22,0.0,1.0,79,0.00,,---,0.00,VWS V14.00,2013-12-08 02:15:00,
2013-12-07 20:20:00,21.9,16.7,29.83,NNE,22,0.0,1.0,80,0.00,,---,0.00,VWS V14.00,2013-12-08 02:20:00,
2013-12-07 20:25:00,21.9,16.7,29.83,NNE,22,0.0,1.0,80,0.00,,---,0.00,VWS V14.00,2013-12-08 02:25:00,
2013-12-07 20:30:00,22.1,16.9,29.83,NNE,22,0.0,1.0,80,0.00,,---,0.00,VWS V14.00,2013-12-08 02:30:00,
2013-12-07 20:35:00,22.1,16.9,29.80,NNE,22,0.0,1.0,80,0.00,,---,0.00,VWS V14.00,2013-12-08 02:35:00,
2013-12-07 20:40:00,22.1,16.9,29.80,NNE,22,0.0,1.0,80,0.00,,---,0.00,VWS V14.00,2013-12-08 02:40:00,
2013-12-07 20:45:00,22.1,16.9,29.80,NNE,22,0.0,1.0,80,0.00,,---,0.00,VWS V14.00,2013-12-08 02:45:00,
2013-12-07 20:50:00,22.1,16.9,29.80,NNE,22,0.0,1.0,80,0.00,,---,0.00,VWS V14.00,2013-12-08 02:50:00,
2013-12-07 20:55:00,22.1,16.9,29.80,NNE,22,0.0,1.0,80,0.00,,---,0.00,VWS V14.00,2013-12-08 02:55:00,
2013-12-07 21:00:00,22.1,17.2,29.83,NNE,22,0.0,1.0,81,0.00,,---,0.00,VWS V14.00,2013-12-08 03:00:00,
2013-12-07 21:05:00,22.1,17.2,29.83,NNE,22,0.0,1.0,81,0.00,,---,0.00,VWS V14.00,2013-12-08 03:05:00,
2013-12-07 21:10:00,22.3,17.4,29.83,NNE,22,0.0,1.0,81,0.00,,---,0.00,VWS V14.00,2013-12-08 03:10:00,
2013-12-07 21:15:00,22.3,17.4,29.80,NNE,22,0.0,1.0,81,0.00,,---,0.00,VWS V14.00,2013-12-08 03:15:00,
2013-12-07 21:20:00,22.1,17.2,29.80,NNE,22,0.0,1.0,81,0.00,,---,0.00,VWS V14.00,2013-12-08 03:20:00,
2013-12-07 21:25:00,22.3,17.4,29.80,NNE,22,0.0,1.0,81,0.00,,---,0.00,VWS V14.00,2013-12-08 03:25:00,
2013-12-07 21:30:00,22.3,17.4,29.80,NNE,22,0.0,1.0,81,0.00,,---,0.00,VWS V14.00,2013-12-08 03:30:00,
2013-12-07 21:35:00,22.3,17.4,29.80,NNE,22,0.0,1.0,81,0.00,,---,0.00,VWS V14.00,2013-12-08 03:35:00,
2013-12-07 21:40:00,22.3,17.4,29.77,NNE,22,0.0,1.0,81,0.00,,---,0.00,VWS V14.00,2013-12-08 03:40:00,
2013-12-07 21:45:00,22.3,17.1,29.77,NNE,22,0.0,1.0,80,0.00,,---,0.00,VWS V14.00,2013-12-08 03:45:00,
2013-12-07 21:50:00,22.1,16.9,29.77,NNE,22,0.0,1.0,80,0.00,,---,0.00,VWS V14.00,2013-12-08 03:50:00,
2013-12-07 21:55:00,22.1,16.9,29.77,NNE,22,0.0,1.0,80,0.00,,---,0.00,VWS V14.00,2013-12-08 03:55:00,
2013-12-07 22:00:00,22.1,16.9,29.77,NNE,22,0.0,1.0,80,0.00,,---,0.00,VWS V14.00,2013-12-08 04:00:00,
2013-12-07 22:05:00,22.1,16.9,29.77,NNE,22,0.0,1.0,80,0.00,,---,0.00,VWS V14.00,2013-12-08 04:05:00,
2013-12-07 22:10:00,22.1,16.9,29.77,NNE,22,0.0,1.0,80,0.00,,---,0.00,VWS V14.00,2013-12-08 04:10:00,
2013-12-07 22:15:00,22.3,17.1,29.77,NNE,22,0.0,1.0,80,0.00,,---,0.00,VWS V14.00,2013-12-08 04:15:00,
2013-12-07 22:20:00,22.1,16.9,29.77,NNE,22,0.0,1.0,80,0.00,,---,0.00,VWS V14.00,2013-12-08 04:20:00,
2013-12-07 22:25:00,22.1,16.9,29.77,NNE,22,0.0,1.0,80,0.00,,---,0.00,VWS V14.00,2013-12-08 04:25:00,
2013-12-07 22:30:00,22.1,16.9,29.77,NNE,22,0.0,1.0,80,0.00,,---,0.00,VWS V14.00,2013-12-08 04:30:00,
2013-12-07 22:35:00,22.1,16.9,29.77,NNE,22,0.0,1.0,80,0.00,,---,0.00,VWS V14.00,2013-12-08 04:35:00,
2013-12-07 22:40:00,22.1,16.9,29.77,NNE,22,0.0,1.0,80,0.00,,---,0.00,VWS V14.00,2013-12-08 04:40:00,
2013-12-07 22:45:00,22.1,17.2,29.77,NNE,22,0.0,1.0,81,0.00,,---,0.00,VWS V14.00,2013-12-08 04:45:00,
2013-12-07 22:50:00,22.3,17.4,29.77,NNE,22,0.0,1.0,81,0.00,,---,0.00,VWS V14.00,2013-12-08 04:50:00,
2013-12-07 22:55:00,22.3,17.4,29.77,NNE,22,0.0,1.0,81,0.00,,---,0.00,VWS V14.00,2013-12-08 04:55:00,
2013-12-07 23:00:00,22.3,17.4,29.77,NNE,22,0.0,1.0,81,0.00,,---,0.00,VWS V14.00,2013-12-08 05:00:00,
2013-12-07 23:01:00,22.3,17.4,29.77,NNE,22,0.0,1.0,81,0.00,,---,0.00,VWS V14.00,2013-12-08 05:01:00,
2013-12-07 23:02:00,22.5,17.5,29.77,NNE,22,0.0,1.0,81,0.00,,---,0.00,VWS V14.00,2013-12-08 05:02:00,
2013-12-07 23:07:00,22.5,17.5,29.77,NNE,22,0.0,1.0,81,0.00,,---,0.00,VWS V14.00,2013-12-08 05:07:00,
2013-12-07 23:12:00,22.5,17.5,29.77,NNE,22,0.0,1.0,81,0.00,,---,0.00,VWS V14.00,2013-12-08 05:12:00,
2013-12-07 23:17:00,22.5,17.5,29.77,NNE,22,0.0,1.0,81,0.00,,---,0.00,VWS V14.00,2013-12-08 05:17:00,
2013-12-07 23:22:00,22.6,18.0,29.74,NNE,22,0.0,1.0,82,0.00,,---,0.00,VWS V14.00,2013-12-08 05:22:00,
2013-12-07 23:27:00,22.6,18.0,29.74,NNE,22,0.0,1.0,82,0.00,,---,0.00,VWS V14.00,2013-12-08 05:27:00,
2013-12-07 23:31:00,22.8,18.2,29.74,NNE,22,0.0,1.0,82,0.00,,---,0.00,VWS V14.00,2013-12-08 05:31:00,
2013-12-07 23:36:00,22.8,18.2,29.74,NNE,22,0.0,1.0,82,0.00,,---,0.00,VWS V14.00,2013-12-08 05:36:00,
2013-12-07 23:41:00,22.8,18.2,29.74,NNE,22,0.0,1.0,82,0.00,,---,0.00,VWS V14.00,2013-12-08 05:41:00,
2013-12-07 23:46:00,22.8,18.2,29.74,NNE,22,0.0,1.0,82,0.00,,---,0.00,VWS V14.00,2013-12-08 05:46:00,
2013-12-07 23:51:00,23.0,18.3,29.74,NNE,22,0.0,1.0,82,0.00,,---,0.00,VWS V14.00,2013-12-08 05:51:00,
2013-12-07 23:56:00,23.0,18.3,29.74,NNE,22,0.0,1.0,82,0.00,,---,0.00,VWS V14.00,2013-12-08 05:56:00,